createdAt,value
2018-01-17T00:00:04.707Z,938.77
2018-01-17T00:01:04.721Z,938.82
2018-01-17T00:02:04.734Z,938.86
2018-01-17T00:03:04.760Z,938.87
2018-01-17T00:04:04.825Z,938.89
2018-01-17T00:05:04.788Z,938.93
2018-01-17T00:06:04.801Z,938.94
2018-01-17T00:07:04.816Z,938.89
2018-01-17T00:08:04.830Z,938.88
2018-01-17T00:09:04.844Z,938.92
2018-01-17T00:10:04.858Z,938.95
2018-01-17T00:11:04.871Z,938.88
2018-01-17T00:12:04.887Z,938.83
2018-01-17T00:13:04.899Z,938.79
2018-01-17T00:14:04.903Z,938.76
2018-01-17T00:15:04.917Z,938.73
2018-01-17T00:16:04.933Z,938.67
2018-01-17T00:17:04.945Z,938.63
2018-01-17T00:18:04.960Z,938.6
2018-01-17T00:19:05.026Z,938.57
2018-01-17T00:20:04.985Z,938.54
2018-01-17T00:21:05.000Z,938.53
2018-01-17T00:22:05.014Z,938.47
2018-01-17T00:23:05.088Z,938.43
2018-01-17T00:24:05.041Z,938.39
2018-01-17T00:25:05.055Z,938.32
2018-01-17T00:26:05.069Z,938.37
2018-01-17T00:27:05.084Z,938.29
2018-01-17T00:28:05.097Z,938.21
2018-01-17T00:29:05.113Z,938.19
2018-01-17T00:30:05.124Z,938.19
2018-01-17T00:31:05.138Z,938.12
2018-01-17T00:32:05.154Z,938.1
2018-01-17T00:33:05.168Z,938.06
2018-01-17T00:34:05.232Z,938.06
2018-01-17T00:35:05.194Z,938.01
2018-01-17T00:36:05.209Z,937.96
2018-01-17T00:37:05.222Z,937.92
2018-01-17T00:38:05.238Z,937.94
2018-01-17T00:39:05.256Z,937.92
2018-01-17T00:40:05.267Z,937.91
2018-01-17T00:41:05.279Z,937.86
2018-01-17T00:42:05.293Z,937.89
2018-01-17T00:43:05.307Z,937.78
2018-01-17T00:44:05.371Z,937.72
2018-01-17T00:45:05.336Z,937.65
2018-01-17T00:46:05.347Z,937.63
2018-01-17T00:47:05.363Z,937.65
2018-01-17T00:48:05.377Z,937.55
2018-01-17T00:49:05.441Z,937.49
2018-01-17T00:50:05.412Z,937.43
2018-01-17T00:51:05.418Z,937.36
2018-01-17T00:52:05.435Z,937.4
2018-01-17T00:53:05.495Z,937.43
2018-01-17T00:54:05.458Z,937.52
2018-01-17T00:55:05.473Z,937.6
2018-01-17T00:56:05.487Z,937.61
2018-01-17T00:57:05.501Z,937.65
2018-01-17T00:58:05.515Z,937.58
2018-01-17T00:59:05.529Z,937.56
2018-01-17T01:00:05.542Z,937.5
2018-01-17T01:01:05.556Z,937.42
2018-01-17T01:02:05.570Z,937.51
2018-01-17T01:03:05.584Z,937.5
2018-01-17T01:04:05.597Z,937.48
2018-01-17T01:05:05.610Z,937.47
2018-01-17T01:06:05.777Z,937.57
2018-01-17T01:07:05.638Z,937.64
2018-01-17T01:08:05.652Z,937.56
2018-01-17T01:09:05.666Z,937.51
2018-01-17T01:10:05.680Z,937.52
2018-01-17T01:11:05.694Z,937.56
2018-01-17T01:12:05.709Z,937.52
2018-01-17T01:13:05.722Z,937.45
2018-01-17T01:14:05.736Z,937.46
2018-01-17T01:15:05.747Z,937.5
2018-01-17T01:16:05.762Z,937.51
2018-01-17T01:17:05.777Z,937.52
2018-01-17T01:18:05.790Z,937.54
2018-01-17T01:19:05.803Z,937.54
2018-01-17T01:20:05.816Z,937.6
2018-01-17T01:21:05.881Z,937.56
2018-01-17T01:22:05.850Z,937.61
2018-01-17T01:23:05.858Z,937.62
2018-01-17T01:24:05.872Z,937.62
2018-01-17T01:25:05.887Z,937.58
2018-01-17T01:26:05.899Z,937.52
2018-01-17T01:27:05.913Z,937.53
2018-01-17T01:28:05.927Z,937.51
2018-01-17T01:29:05.942Z,937.52
2018-01-17T01:30:05.967Z,937.5
2018-01-17T01:31:05.980Z,937.51
2018-01-17T01:32:05.993Z,937.43
2018-01-17T01:33:06.008Z,937.46
2018-01-17T01:34:06.022Z,937.49
2018-01-17T01:35:06.034Z,937.53
2018-01-17T01:36:06.097Z,937.56
2018-01-17T01:37:06.061Z,937.55
2018-01-17T01:38:06.181Z,937.57
2018-01-17T01:39:06.077Z,937.45
2018-01-17T01:40:06.091Z,937.44
2018-01-17T01:41:06.104Z,937.47
2018-01-17T01:42:06.129Z,937.44
2018-01-17T01:43:06.145Z,937.47
2018-01-17T01:44:06.158Z,937.42
2018-01-17T01:45:06.174Z,937.44
2018-01-17T01:46:06.190Z,937.46
2018-01-17T01:47:06.199Z,937.41
2018-01-17T01:48:06.213Z,937.51
2018-01-17T01:49:06.227Z,937.5
2018-01-17T01:50:06.238Z,937.4
2018-01-17T01:51:06.253Z,937.43
2018-01-17T01:52:06.316Z,937.35
2018-01-17T01:53:06.281Z,937.37
2018-01-17T01:54:06.495Z,937.37
2018-01-17T01:55:06.329Z,937.28
2018-01-17T01:56:06.319Z,937.23
2018-01-17T01:57:06.334Z,937.17
2018-01-17T01:58:06.347Z,937.26
2018-01-17T01:59:06.359Z,937.28
2018-01-17T02:00:06.375Z,937.24
2018-01-17T02:01:06.388Z,937.26
2018-01-17T02:02:06.404Z,937.23
2018-01-17T02:03:06.413Z,937.27
2018-01-17T02:04:06.428Z,937.44
2018-01-17T02:05:06.441Z,937.36
2018-01-17T02:06:06.457Z,937.34
2018-01-17T02:07:06.517Z,937.33
2018-01-17T02:08:06.481Z,937.35
2018-01-17T02:09:06.494Z,937.29
2018-01-17T02:10:06.507Z,937.32
2018-01-17T02:11:06.568Z,937.26
2018-01-17T02:12:06.535Z,937.25
2018-01-17T02:13:06.548Z,937.2
2018-01-17T02:14:06.562Z,937.15
2018-01-17T02:15:06.575Z,937.17
2018-01-17T02:16:06.587Z,937.22
2018-01-17T02:17:06.600Z,937.15
2018-01-17T02:18:06.614Z,937.14
2018-01-17T02:19:06.616Z,937.17
2018-01-17T02:20:06.653Z,937.15
2018-01-17T02:21:06.642Z,936.99
2018-01-17T02:22:06.705Z,937.06
2018-01-17T02:23:06.670Z,936.97
2018-01-17T02:24:06.687Z,937.02
2018-01-17T02:25:06.695Z,937
2018-01-17T02:26:06.710Z,936.9
2018-01-17T02:27:06.724Z,936.96
2018-01-17T02:28:06.737Z,936.94
2018-01-17T02:29:06.751Z,937.03
2018-01-17T02:30:06.771Z,936.97
2018-01-17T02:31:06.800Z,936.96
2018-01-17T02:32:06.789Z,936.97
2018-01-17T02:33:06.805Z,937.03
2018-01-17T02:34:06.818Z,937.15
2018-01-17T02:35:06.833Z,937.11
2018-01-17T02:36:06.844Z,937.06
2018-01-17T02:37:06.908Z,937.11
2018-01-17T02:38:06.885Z,937.26
2018-01-17T02:39:06.884Z,937.27
2018-01-17T02:40:06.897Z,937.29
2018-01-17T02:41:06.910Z,937.31
2018-01-17T02:42:06.924Z,937.29
2018-01-17T02:43:06.938Z,937.34
2018-01-17T02:44:06.952Z,937.43
2018-01-17T02:45:06.964Z,937.39
2018-01-17T02:46:06.982Z,937.4
2018-01-17T02:47:06.995Z,937.47
2018-01-17T02:48:07.006Z,937.46
2018-01-17T02:49:07.019Z,937.48
2018-01-17T02:50:07.032Z,937.48
2018-01-17T02:51:07.055Z,937.47
2018-01-17T02:52:07.109Z,937.49
2018-01-17T02:53:07.072Z,937.54
2018-01-17T02:54:07.092Z,937.55
2018-01-17T02:55:07.101Z,937.51
2018-01-17T02:56:07.113Z,937.47
2018-01-17T02:57:07.143Z,937.44
2018-01-17T02:58:07.142Z,937.47
2018-01-17T02:59:07.154Z,937.46
2018-01-17T03:00:07.167Z,937.43
2018-01-17T03:01:07.180Z,937.41
2018-01-17T03:02:07.194Z,937.42
2018-01-17T03:03:07.208Z,937.38
2018-01-17T03:04:07.222Z,937.41
2018-01-17T03:05:07.238Z,937.37
2018-01-17T03:06:07.248Z,937.38
2018-01-17T03:07:07.414Z,937.42
2018-01-17T03:08:07.276Z,937.4
2018-01-17T03:09:07.289Z,937.38
2018-01-17T03:10:07.305Z,937.33
2018-01-17T03:11:07.316Z,937.32
2018-01-17T03:12:07.330Z,937.32
2018-01-17T03:13:07.343Z,937.25
2018-01-17T03:14:07.358Z,937.21
2018-01-17T03:15:07.371Z,937.22
2018-01-17T03:16:07.384Z,937.26
2018-01-17T03:17:07.397Z,937.2
2018-01-17T03:18:07.411Z,937.15
2018-01-17T03:19:07.424Z,937.19
2018-01-17T03:20:07.439Z,937.21
2018-01-17T03:21:07.453Z,937.4
2018-01-17T03:22:07.470Z,937.34
2018-01-17T03:23:07.479Z,937.24
2018-01-17T03:24:07.493Z,937.34
2018-01-17T03:25:07.509Z,937.26
2018-01-17T03:26:07.521Z,937.25
2018-01-17T03:27:07.535Z,937.21
2018-01-17T03:28:07.549Z,937.2
2018-01-17T03:29:07.563Z,937.16
2018-01-17T03:30:07.576Z,937.17
2018-01-17T03:31:07.590Z,937.21
2018-01-17T03:32:07.603Z,937.16
2018-01-17T03:33:07.616Z,937.27
2018-01-17T03:34:07.630Z,937.18
2018-01-17T03:35:07.644Z,937.15
2018-01-17T03:36:07.661Z,937.15
2018-01-17T03:37:07.677Z,937.23
2018-01-17T03:38:07.685Z,937.08
2018-01-17T03:39:07.697Z,937.08
2018-01-17T03:40:07.712Z,937
2018-01-17T03:41:07.724Z,937.09
2018-01-17T03:42:07.739Z,937
2018-01-17T03:43:07.767Z,937.09
2018-01-17T03:44:07.767Z,937.05
2018-01-17T03:45:07.780Z,937.17
2018-01-17T03:46:07.794Z,937.15
2018-01-17T03:47:07.814Z,937.12
2018-01-17T03:48:07.821Z,937.14
2018-01-17T03:49:07.846Z,937.2
2018-01-17T03:50:07.849Z,937.25
2018-01-17T03:51:07.867Z,937.3
2018-01-17T03:52:07.876Z,937.16
2018-01-17T03:53:07.889Z,937.04
2018-01-17T03:54:07.904Z,937.08
2018-01-17T03:55:07.916Z,937.12
2018-01-17T03:56:07.930Z,937.07
2018-01-17T03:57:07.944Z,937.02
2018-01-17T03:58:07.957Z,937.13
2018-01-17T03:59:07.971Z,937.02
2018-01-17T04:00:07.984Z,937.06
2018-01-17T04:01:07.997Z,937.07
2018-01-17T04:02:08.012Z,937.12
2018-01-17T04:03:08.030Z,937.13
2018-01-17T04:04:08.039Z,937.13
2018-01-17T04:05:08.053Z,937.08
2018-01-17T04:06:08.067Z,937.06
2018-01-17T04:07:08.079Z,937.03
2018-01-17T04:08:08.093Z,936.97
2018-01-17T04:09:08.108Z,937.04
2018-01-17T04:10:08.122Z,937
2018-01-17T04:11:08.134Z,937.01
2018-01-17T04:12:08.150Z,936.97
2018-01-17T04:13:08.162Z,936.87
2018-01-17T04:14:08.176Z,936.95
2018-01-17T04:15:08.190Z,936.86
2018-01-17T04:16:08.205Z,936.96
2018-01-17T04:17:08.217Z,936.9
2018-01-17T04:18:08.233Z,936.87
2018-01-17T04:19:08.252Z,936.86
2018-01-17T04:20:08.259Z,936.86
2018-01-17T04:21:08.273Z,936.83
2018-01-17T04:22:08.285Z,936.76
2018-01-17T04:23:08.300Z,936.87
2018-01-17T04:24:08.316Z,936.87
2018-01-17T04:25:08.329Z,936.87
2018-01-17T04:26:08.376Z,936.85
2018-01-17T04:27:08.356Z,936.87
2018-01-17T04:28:08.373Z,936.8
2018-01-17T04:29:08.384Z,936.83
2018-01-17T04:30:08.397Z,936.82
2018-01-17T04:31:08.412Z,936.86
2018-01-17T04:32:08.426Z,936.8
2018-01-17T04:33:08.438Z,936.86
2018-01-17T04:34:08.459Z,936.92
2018-01-17T04:35:08.468Z,936.86
2018-01-17T04:36:08.481Z,936.93
2018-01-17T04:37:08.494Z,936.87
2018-01-17T04:38:08.509Z,936.87
2018-01-17T04:39:08.522Z,936.92
2018-01-17T04:40:08.536Z,936.95
2018-01-17T04:41:08.549Z,936.9
2018-01-17T04:42:08.564Z,936.95
2018-01-17T04:43:08.577Z,937.01
2018-01-17T04:44:08.591Z,936.95
2018-01-17T04:45:08.605Z,936.98
2018-01-17T04:46:08.619Z,937
2018-01-17T04:47:08.636Z,936.93
2018-01-17T04:48:08.647Z,936.92
2018-01-17T04:49:08.661Z,936.94
2018-01-17T04:50:08.674Z,936.94
2018-01-17T04:51:08.689Z,936.93
2018-01-17T04:52:08.702Z,937.04
2018-01-17T04:53:08.717Z,936.99
2018-01-17T04:54:08.731Z,936.97
2018-01-17T04:55:08.747Z,936.92
2018-01-17T04:56:08.758Z,937.05
2018-01-17T04:57:08.773Z,937.03
2018-01-17T04:58:08.786Z,937.08
2018-01-17T04:59:08.800Z,937.06
2018-01-17T05:00:08.814Z,937.07
2018-01-17T05:01:08.828Z,937.09
2018-01-17T05:02:08.841Z,937.06
2018-01-17T05:03:08.856Z,937.1
2018-01-17T05:04:08.868Z,936.98
2018-01-17T05:05:08.882Z,937.11
2018-01-17T05:06:08.896Z,937.08
2018-01-17T05:07:08.910Z,936.98
2018-01-17T05:08:08.924Z,936.98
2018-01-17T05:09:08.937Z,936.88
2018-01-17T05:10:08.950Z,936.96
2018-01-17T05:11:08.964Z,936.93
2018-01-17T05:12:08.979Z,936.95
2018-01-17T05:13:08.993Z,936.89
2018-01-17T05:14:09.005Z,936.88
2018-01-17T05:15:09.020Z,936.93
2018-01-17T05:16:09.032Z,937.02
2018-01-17T05:17:09.047Z,937.07
2018-01-17T05:18:09.061Z,937.1
2018-01-17T05:19:09.075Z,937.13
2018-01-17T05:20:09.088Z,937.17
2018-01-17T05:21:09.102Z,937.18
2018-01-17T05:22:09.116Z,937.17
2018-01-17T05:23:09.130Z,937.22
2018-01-17T05:24:09.156Z,937.29
2018-01-17T05:25:09.157Z,937.24
2018-01-17T05:26:09.171Z,937.3
2018-01-17T05:27:09.184Z,937.39
2018-01-17T05:28:09.197Z,937.36
2018-01-17T05:29:09.213Z,937.4
2018-01-17T05:30:09.227Z,937.46
2018-01-17T05:31:09.241Z,937.51
2018-01-17T05:32:09.254Z,937.46
2018-01-17T05:33:09.275Z,937.55
2018-01-17T05:34:09.282Z,937.55
2018-01-17T05:35:09.296Z,937.69
2018-01-17T05:36:09.309Z,937.66
2018-01-17T05:37:09.322Z,937.67
2018-01-17T05:38:09.386Z,937.69
2018-01-17T05:39:09.349Z,937.75
2018-01-17T05:40:09.363Z,937.64
2018-01-17T05:41:09.378Z,937.67
2018-01-17T05:42:09.393Z,937.67
2018-01-17T05:43:09.413Z,937.69
2018-01-17T05:44:09.420Z,937.8
2018-01-17T05:45:09.433Z,937.75
2018-01-17T05:46:09.446Z,937.85
2018-01-17T05:47:09.460Z,937.78
2018-01-17T05:48:09.474Z,937.79
2018-01-17T05:49:09.488Z,937.86
2018-01-17T05:50:09.502Z,937.91
2018-01-17T05:51:09.514Z,937.99
2018-01-17T05:52:09.529Z,937.94
2018-01-17T05:53:09.543Z,937.88
2018-01-17T05:54:09.556Z,937.82
2018-01-17T05:55:09.569Z,937.86
2018-01-17T05:56:09.584Z,937.91
2018-01-17T05:57:09.597Z,937.93
2018-01-17T05:58:09.609Z,938.04
2018-01-17T05:59:09.625Z,937.93
2018-01-17T06:00:09.641Z,938.02
2018-01-17T06:01:09.651Z,937.94
2018-01-17T06:02:09.665Z,938.02
2018-01-17T06:03:09.681Z,938.01
2018-01-17T06:04:09.692Z,937.97
2018-01-17T06:05:09.707Z,938.03
2018-01-17T06:06:09.722Z,938.12
2018-01-17T06:07:09.735Z,938.09
2018-01-17T06:08:09.748Z,938.09
2018-01-17T06:09:09.762Z,938.13
2018-01-17T06:10:09.777Z,938.09
2018-01-17T06:11:09.788Z,938.17
2018-01-17T06:12:09.802Z,938.13
2018-01-17T06:13:09.816Z,938.19
2018-01-17T06:14:09.831Z,938.19
2018-01-17T06:15:09.843Z,938.11
2018-01-17T06:16:09.857Z,938.21
2018-01-17T06:17:09.874Z,938.18
2018-01-17T06:18:09.885Z,938.1
2018-01-17T06:19:09.899Z,938.07
2018-01-17T06:20:09.913Z,938.11
2018-01-17T06:21:09.929Z,938.23
2018-01-17T06:22:09.941Z,938.16
2018-01-17T06:23:09.955Z,938.14
2018-01-17T06:24:09.970Z,938.15
2018-01-17T06:25:10.001Z,938.2
2018-01-17T06:26:09.996Z,938.14
2018-01-17T06:27:10.010Z,938.1
2018-01-17T06:28:10.025Z,938.1
2018-01-17T06:29:10.060Z,938.08
2018-01-17T06:30:10.053Z,938.03
2018-01-17T06:31:10.068Z,938.06
2018-01-17T06:32:10.081Z,938.01
2018-01-17T06:33:10.095Z,937.98
2018-01-17T06:34:10.107Z,937.99
2018-01-17T06:35:10.121Z,938.08
2018-01-17T06:36:10.141Z,938
2018-01-17T06:37:10.149Z,938.06
2018-01-17T06:38:10.163Z,938.04
2018-01-17T06:39:10.179Z,938.01
2018-01-17T06:40:10.191Z,937.87
2018-01-17T06:41:10.204Z,937.91
2018-01-17T06:42:10.217Z,938.02
2018-01-17T06:43:10.265Z,937.7
2018-01-17T06:44:10.248Z,937.87
2018-01-17T06:45:10.259Z,938.01
2018-01-17T06:46:10.274Z,937.89
2018-01-17T06:47:10.289Z,938.01
2018-01-17T06:48:10.298Z,937.98
2018-01-17T06:49:10.313Z,938.19
2018-01-17T06:50:10.329Z,938.2
2018-01-17T06:51:10.339Z,938.1
2018-01-17T06:52:10.354Z,938.19
2018-01-17T06:53:10.367Z,938.31
2018-01-17T06:54:10.381Z,938.26
2018-01-17T06:55:10.394Z,938.31
2018-01-17T06:56:10.408Z,938.49
2018-01-17T06:57:10.421Z,938.47
2018-01-17T06:58:10.436Z,938.72
2018-01-17T06:59:10.447Z,939.01
2018-01-17T07:00:10.461Z,939.51
2018-01-17T07:01:10.475Z,939.22
2018-01-17T07:02:10.488Z,939.38
2018-01-17T07:03:10.501Z,939.33
2018-01-17T07:04:10.513Z,938.93
2018-01-17T07:05:10.544Z,938.99
2018-01-17T07:06:10.540Z,939
2018-01-17T07:07:10.553Z,939.11
2018-01-17T07:08:10.567Z,939.29
2018-01-17T07:09:10.580Z,939.04
2018-01-17T07:10:10.590Z,939.05
2018-01-17T07:11:10.605Z,939.11
2018-01-17T07:12:10.625Z,939.27
2018-01-17T07:13:10.629Z,939.3
2018-01-17T07:14:10.642Z,939.36
2018-01-17T07:15:10.655Z,939.41
2018-01-17T07:16:10.671Z,939.42
2018-01-17T07:17:10.679Z,939.37
2018-01-17T07:18:10.692Z,939.32
2018-01-17T07:19:10.704Z,939.24
2018-01-17T07:20:10.717Z,939.09
2018-01-17T07:21:10.727Z,939.15
2018-01-17T07:22:10.740Z,939.16
2018-01-17T07:23:10.752Z,939.08
2018-01-17T07:24:10.767Z,939.16
2018-01-17T07:25:10.777Z,939.15
2018-01-17T07:26:10.789Z,939.22
2018-01-17T07:27:10.802Z,939.18
2018-01-17T07:28:10.813Z,939.14
2018-01-17T07:29:10.826Z,939.16
2018-01-17T07:30:10.839Z,939.26
2018-01-17T07:31:10.850Z,939.23
2018-01-17T07:32:10.861Z,939.29
2018-01-17T07:33:10.874Z,939.37
2018-01-17T07:34:10.885Z,939.47
2018-01-17T07:35:10.896Z,939.47
2018-01-17T07:36:10.910Z,939.5
2018-01-17T07:37:10.924Z,939.57
2018-01-17T07:38:10.936Z,939.62
2018-01-17T07:39:10.946Z,939.56
2018-01-17T07:40:10.959Z,939.66
2018-01-17T07:41:10.971Z,939.66
2018-01-17T07:42:10.983Z,939.75
2018-01-17T07:43:10.995Z,939.73
2018-01-17T07:44:11.009Z,939.79
2018-01-17T07:45:11.020Z,939.81
2018-01-17T07:46:11.031Z,939.79
2018-01-17T07:47:11.044Z,939.9
2018-01-17T07:48:11.059Z,939.84
2018-01-17T07:49:11.090Z,939.89
2018-01-17T07:50:11.080Z,939.95
2018-01-17T07:51:11.095Z,939.91
2018-01-17T07:52:11.106Z,939.81
2018-01-17T07:53:11.117Z,939.93
2018-01-17T07:54:11.129Z,939.92
2018-01-17T07:55:11.164Z,940.05
2018-01-17T07:56:11.204Z,939.94
2018-01-17T07:57:11.166Z,940.02
2018-01-17T07:58:11.178Z,940.07
2018-01-17T07:59:11.190Z,940.11
2018-01-17T08:00:11.203Z,940.06
2018-01-17T08:01:11.213Z,940.09
2018-01-17T08:02:11.229Z,940.11
2018-01-17T08:03:11.238Z,940.16
2018-01-17T08:04:11.251Z,940.15
2018-01-17T08:05:11.264Z,940.28
2018-01-17T08:06:11.276Z,940.22
2018-01-17T08:07:11.287Z,940.27
2018-01-17T08:08:11.300Z,940.27
2018-01-17T08:09:11.314Z,940.3
2018-01-17T08:10:11.326Z,940.21
2018-01-17T08:11:11.337Z,940.36
2018-01-17T08:12:11.347Z,940.33
2018-01-17T08:13:11.363Z,940.36
2018-01-17T08:14:11.373Z,940.35
2018-01-17T08:15:11.383Z,940.41
2018-01-17T08:16:11.396Z,940.41
2018-01-17T08:17:11.409Z,940.38
2018-01-17T08:18:11.420Z,940.48
2018-01-17T08:19:11.431Z,940.52
2018-01-17T08:20:11.445Z,940.47
2018-01-17T08:21:11.457Z,940.47
2018-01-17T08:22:11.468Z,940.38
2018-01-17T08:23:11.480Z,940.49
2018-01-17T08:24:11.493Z,940.44
2018-01-17T08:25:11.508Z,940.44
2018-01-17T08:26:11.516Z,940.49
2018-01-17T08:27:11.528Z,940.6
2018-01-17T08:28:11.540Z,940.5
2018-01-17T08:29:11.552Z,940.58
2018-01-17T08:30:11.570Z,940.64
2018-01-17T08:31:11.577Z,940.69
2018-01-17T08:32:11.587Z,940.68
2018-01-17T08:33:11.600Z,940.7
2018-01-17T08:34:11.611Z,940.73
2018-01-17T08:35:11.622Z,940.76
2018-01-17T08:36:11.636Z,940.82
2018-01-17T08:37:11.646Z,940.9
2018-01-17T08:38:11.659Z,940.86
2018-01-17T08:39:11.671Z,940.82
2018-01-17T08:40:11.683Z,940.84
2018-01-17T08:41:11.696Z,940.94
2018-01-17T08:42:11.706Z,940.94
2018-01-17T08:43:11.718Z,940.87
2018-01-17T08:44:11.730Z,941.03
2018-01-17T08:45:11.742Z,941.01
2018-01-17T08:46:11.754Z,941.01
2018-01-17T08:47:11.767Z,940.98
2018-01-17T08:48:11.778Z,941.08
2018-01-17T08:49:11.789Z,941.04
2018-01-17T08:50:11.802Z,941.17
2018-01-17T08:51:11.818Z,941.28
2018-01-17T08:52:11.848Z,941.14
2018-01-17T08:53:11.839Z,941.24
2018-01-17T08:54:11.850Z,941.11
2018-01-17T08:55:11.863Z,941.14
2018-01-17T08:56:11.875Z,941.17
2018-01-17T08:57:11.888Z,941.26
2018-01-17T08:58:11.901Z,941.26
2018-01-17T08:59:11.915Z,941.36
2018-01-17T09:00:11.923Z,941.31
2018-01-17T09:01:11.936Z,941.4
2018-01-17T09:02:11.948Z,941.36
2018-01-17T09:03:11.960Z,941.43
2018-01-17T09:04:11.972Z,941.47
2018-01-17T09:05:11.984Z,941.53
2018-01-17T09:06:11.999Z,941.57
2018-01-17T09:07:12.008Z,941.58
2018-01-17T09:08:12.020Z,941.64
2018-01-17T09:09:12.033Z,941.6
2018-01-17T09:10:12.045Z,941.66
2018-01-17T09:11:12.056Z,941.82
2018-01-17T09:12:12.069Z,941.76
2018-01-17T09:13:12.082Z,941.69
2018-01-17T09:14:12.094Z,941.8
2018-01-17T09:15:12.106Z,941.79
2018-01-17T09:16:12.118Z,941.85
2018-01-17T09:17:12.131Z,941.81
2018-01-17T09:18:12.142Z,941.8
2018-01-17T09:19:12.154Z,941.83
2018-01-17T09:20:12.170Z,941.8
2018-01-17T09:21:12.178Z,941.99
2018-01-17T09:22:12.192Z,941.92
2018-01-17T09:23:12.203Z,941.8
2018-01-17T09:24:12.216Z,941.88
2018-01-17T09:25:12.228Z,941.95
2018-01-17T09:26:12.242Z,941.83
2018-01-17T09:27:12.304Z,942
2018-01-17T09:28:12.265Z,941.96
2018-01-17T09:29:12.278Z,941.91
2018-01-17T09:30:12.292Z,941.83
2018-01-17T09:31:12.303Z,941.96
2018-01-17T09:32:12.414Z,941.93
2018-01-17T09:33:12.328Z,942.07
2018-01-17T09:34:12.345Z,942.08
2018-01-17T09:35:12.352Z,942.08
2018-01-17T09:36:12.365Z,942.06
2018-01-17T09:37:12.377Z,942.14
2018-01-17T09:38:12.391Z,942.07
2018-01-17T09:39:12.405Z,941.96
2018-01-17T09:40:12.417Z,942.17
2018-01-17T09:41:12.433Z,942.18
2018-01-17T09:42:12.493Z,942.21
2018-01-17T09:43:12.454Z,942.23
2018-01-17T09:44:12.468Z,942.15
2018-01-17T09:45:12.481Z,942.14
2018-01-17T09:46:12.494Z,942.15
2018-01-17T09:47:12.506Z,942.3
2018-01-17T09:48:12.519Z,942.27
2018-01-17T09:49:12.534Z,942.15
2018-01-17T09:50:12.546Z,942.3
2018-01-17T09:51:12.559Z,942.06
2018-01-17T09:52:12.572Z,942.29
2018-01-17T09:53:12.584Z,942.29
2018-01-17T09:54:12.597Z,942.33
2018-01-17T09:55:12.610Z,942.34
2018-01-17T09:56:12.622Z,942.42
2018-01-17T09:57:12.687Z,942.34
2018-01-17T09:58:12.648Z,942.39
2018-01-17T09:59:12.662Z,942.43
2018-01-17T10:00:12.676Z,942.34
2018-01-17T10:01:12.687Z,942.28
2018-01-17T10:02:12.700Z,942.43
2018-01-17T10:03:12.714Z,942.42
2018-01-17T10:04:12.725Z,942.49
2018-01-17T10:05:12.741Z,942.44
2018-01-17T10:06:12.751Z,942.47
2018-01-17T10:07:12.764Z,942.41
2018-01-17T10:08:12.777Z,942.53
2018-01-17T10:09:12.790Z,942.52
2018-01-17T10:10:12.802Z,942.51
2018-01-17T10:11:12.817Z,942.53
2018-01-17T10:12:12.878Z,942.56
2018-01-17T10:13:12.840Z,942.61
2018-01-17T10:14:12.854Z,942.58
2018-01-17T10:15:12.868Z,942.67
2018-01-17T10:16:12.880Z,942.72
2018-01-17T10:17:12.893Z,942.77
2018-01-17T10:18:12.906Z,942.92
2018-01-17T10:19:12.921Z,942.84
2018-01-17T10:20:12.934Z,942.94
2018-01-17T10:21:12.947Z,942.93
2018-01-17T10:22:12.961Z,942.93
2018-01-17T10:23:12.976Z,942.98
2018-01-17T10:24:12.991Z,942.86
2018-01-17T10:25:13.016Z,942.98
2018-01-17T10:26:13.024Z,943
2018-01-17T10:27:13.088Z,943
2018-01-17T10:28:13.055Z,942.85
2018-01-17T10:29:13.071Z,942.97
2018-01-17T10:30:13.087Z,942.89
2018-01-17T10:31:13.103Z,943
2018-01-17T10:32:13.219Z,943.1
2018-01-17T10:33:13.137Z,942.98
2018-01-17T10:34:13.155Z,942.86
2018-01-17T10:35:13.172Z,943.02
2018-01-17T10:36:13.190Z,943.26
2018-01-17T10:37:13.209Z,943.14
2018-01-17T10:38:13.226Z,943.07
2018-01-17T10:39:13.245Z,943.27
2018-01-17T10:40:13.263Z,943.11
2018-01-17T10:41:13.281Z,943.25
2018-01-17T10:42:13.350Z,943.24
2018-01-17T10:43:13.320Z,943.36
2018-01-17T10:44:13.339Z,943.17
2018-01-17T10:45:13.356Z,943.14
2018-01-17T10:46:13.377Z,943.35
2018-01-17T10:47:13.397Z,943.34
2018-01-17T10:48:13.416Z,943.25
2018-01-17T10:49:13.434Z,943.27
2018-01-17T10:50:13.455Z,943.34
2018-01-17T10:51:13.476Z,943.4
2018-01-17T10:52:13.495Z,943.49
2018-01-17T10:53:13.513Z,943.24
2018-01-17T10:54:13.533Z,943.33
2018-01-17T10:55:13.552Z,943.24
2018-01-17T10:56:13.571Z,943.34
2018-01-17T10:57:13.639Z,943.29
2018-01-17T10:58:13.608Z,943.35
2018-01-17T10:59:13.627Z,943.28
2018-01-17T11:00:13.644Z,943.14
2018-01-17T11:01:13.661Z,943.24
2018-01-17T11:02:13.679Z,943.07
2018-01-17T11:03:13.698Z,943.3
2018-01-17T11:04:13.714Z,943.35
2018-01-17T11:05:13.731Z,943.16
2018-01-17T11:06:13.748Z,943.23
2018-01-17T11:07:13.765Z,943.31
2018-01-17T11:08:13.780Z,943.12
2018-01-17T11:09:13.800Z,943.31
2018-01-17T11:10:13.818Z,943.33
2018-01-17T11:11:13.831Z,943.32
2018-01-17T11:12:13.896Z,943.38
2018-01-17T11:13:13.862Z,943.32
2018-01-17T11:14:13.879Z,943.35
2018-01-17T11:15:13.894Z,943.46
2018-01-17T11:16:13.910Z,943.38
2018-01-17T11:17:13.940Z,943.28
2018-01-17T11:18:13.938Z,943.46
2018-01-17T11:19:13.954Z,943.37
2018-01-17T11:20:13.971Z,943.46
2018-01-17T11:21:13.987Z,943.39
2018-01-17T11:22:14.000Z,943.36
2018-01-17T11:23:14.017Z,943.19
2018-01-17T11:24:14.033Z,943.32
2018-01-17T11:25:14.046Z,943.3
2018-01-17T11:26:14.061Z,943.42
2018-01-17T11:27:14.076Z,943.39
2018-01-17T11:28:14.091Z,943.35
2018-01-17T11:29:14.156Z,943.38
2018-01-17T11:30:14.122Z,943.33
2018-01-17T11:31:14.137Z,943.35
2018-01-17T11:32:14.152Z,943.47
2018-01-17T11:33:14.165Z,943.4
2018-01-17T11:34:14.231Z,943.45
2018-01-17T11:35:14.197Z,943.47
2018-01-17T11:36:14.212Z,943.48
2018-01-17T11:37:14.225Z,943.56
2018-01-17T11:38:14.240Z,943.59
2018-01-17T11:39:14.356Z,943.51
2018-01-17T11:40:14.270Z,943.48
2018-01-17T11:41:14.283Z,943.5
2018-01-17T11:42:14.298Z,943.6
2018-01-17T11:43:14.314Z,943.65
2018-01-17T11:44:14.379Z,943.55
2018-01-17T11:45:14.342Z,943.73
2018-01-17T11:46:14.358Z,943.83
2018-01-17T11:47:14.371Z,943.74
2018-01-17T11:48:14.387Z,943.99
2018-01-17T11:49:14.400Z,943.88
2018-01-17T11:50:14.415Z,943.96
2018-01-17T11:51:14.428Z,944.04
2018-01-17T11:52:14.441Z,944.14
2018-01-17T11:53:14.457Z,944.13
2018-01-17T11:54:14.471Z,944.17
2018-01-17T11:55:14.484Z,944.33
2018-01-17T11:56:14.496Z,944.16
2018-01-17T11:57:14.512Z,944.34
2018-01-17T11:58:14.524Z,944.21
2018-01-17T11:59:14.588Z,944.34
2018-01-17T12:00:14.552Z,944.31
2018-01-17T12:01:14.566Z,944.41
2018-01-17T12:02:14.577Z,944.28
2018-01-17T12:03:14.591Z,944.2
2018-01-17T12:04:14.610Z,944.16
2018-01-17T12:05:14.618Z,944.22
2018-01-17T12:06:14.630Z,944.28
2018-01-17T12:07:14.642Z,944.32
2018-01-17T12:08:14.655Z,944.29
2018-01-17T12:09:14.667Z,944.32
2018-01-17T12:10:14.680Z,944.37
2018-01-17T12:11:14.691Z,944.25
2018-01-17T12:12:14.705Z,944.2
2018-01-17T12:13:14.717Z,944.34
2018-01-17T12:14:14.794Z,944.21
2018-01-17T12:15:14.742Z,944.14
2018-01-17T12:16:14.755Z,944.22
2018-01-17T12:17:14.764Z,944.2
2018-01-17T12:18:14.777Z,944.23
2018-01-17T12:19:14.789Z,944.33
2018-01-17T12:20:14.801Z,944.34
2018-01-17T12:21:14.816Z,944.33
2018-01-17T12:22:14.843Z,944.39
2018-01-17T12:23:14.838Z,944.31
2018-01-17T12:24:14.897Z,944.44
2018-01-17T12:25:14.860Z,944.5
2018-01-17T12:26:14.873Z,944.58
2018-01-17T12:27:14.885Z,944.52
2018-01-17T12:28:14.896Z,944.53
2018-01-17T12:29:14.958Z,944.56
2018-01-17T12:30:14.921Z,944.45
2018-01-17T12:31:14.932Z,944.6